Parker Ford, PA (19457)

12:45 PM EST on February 27, 2015 (GMT -0500)
Pottstown | Change Station
CLOSE
Current Station
Personal Weather Station
Location: Pottstown, PA
Elevation: 253 ft
Nearby Weather Stations

Elev 253 ft 40.24 °N, 75.60 °W | Updated 2 minutes ago

Clear
Clear
25.7 °F
Feels Like 19 °F
N
5.6
Wind Variable Wind from WSW
Gusts 14.6 mph

Today
High -- | Low -- °F
--% Chance of Precip.
Yesterday
High -- | Low -- °F
Precip. -- in
6:39 AM 5:51 PM
Waxing Gibbous, 70% visible
Pressure 30.44 in
Visibility 10.0 miles
Clouds Clear
Windchill 19 °F
Dew Point 7 °F
Humidity 44%
Rainfall 0.00 in
Snow Depth Not available.
UV 5 out of 12
Pollen .50 out of 12
Air Quality Not available.
Flu Activity Not available.
METAR KPTW 271654Z AUTO 36007KT 340V050 10SM CLR M04/M15 A3043 RMK AO2 SLP307 T10441150 $

More Conditions Fewer Conditions

Pressure 30.44 in
Visibility 10.0 miles
Clouds Clear
Windchill 19 °F
Dew Point 7 °F
Humidity 44%
Rainfall 0.00 in
Snow Depth Not available.
UV 5 out of 12
Pollen .50 out of 12
Air Quality Not available.
Flu Activity Not available.
METAR KPTW 271654Z AUTO 36007KT 340V050 10SM CLR M04/M15 A3043 RMK AO2 SLP307 T10441150 $

More Conditions Fewer Conditions

10-Day Weather Forecast

Almanac

Astronomy

Feb. 27, 2015 Rise Set
Actual Time
Civil Twilight
Nautical Twilight
Astronomical Twilight
Moon
Length of Visible Light
Length of Day
Tomorrow will be .
, % of the Moon is Illuminated

Today's Extremes

State Highs State Lows

Community

WunderPhotos

Upload Photos

1,800,758 photos uploaded!

WunderBlogs® & News

Nearby

Air Quality

  Air Quality AQ Index Pollutant
Not available.

Snow Depth

Station Depth Elevation

Earthquake Activity

City Distance Mag. Time & Date
Minimum magnitude displayed is 2.5.

Coastal Water Temperatures

Place Temperature

Nearby Weather Stations